Time;durP1;ratioP1;P1;durP2;ratioP2;P2;SDS_P1;SDS_P2;PMS_P1;PMS_P2;Temp;Humidity;BMP_temperature;BMP_pressure;BME280_temperature;BME280_humidity;BME280_pressure;Samples;Min_cycle;Max_cycle;Signal;HPM_P1;HPM_P2
2023/08/13 00:00:55;;;;;;;3.80;3.50;;;21.00;99.90;;;;;;5088431;28;20173;-72
2023/08/13 00:03:21;;;;;;;3.63;3.33;;;20.90;99.90;;;;;;5083748;28;20251;-71
2023/08/13 00:05:47;;;;;;;4.13;3.17;;;20.90;99.90;;;;;;5093469;28;20522;-71
2023/08/13 00:08:12;;;;;;;3.50;3.20;;;20.90;99.90;;;;;;5092952;28;20191;-71
2023/08/13 00:10:39;;;;;;;3.20;3.00;;;20.90;99.90;;;;;;5090002;28;20174;-71
2023/08/13 00:13:04;;;;;;;3.67;3.03;;;20.70;99.90;;;;;;5090795;28;20166;-71
2023/08/13 00:15:30;;;;;;;3.67;3.27;;;20.70;99.90;;;;;;5091922;28;20397;-71
2023/08/13 00:17:55;;;;;;;2.47;2.30;;;20.60;99.90;;;;;;5087541;28;20294;-72
2023/08/13 00:20:21;;;;;;;3.40;3.10;;;20.60;99.90;;;;;;5088095;28;20221;-70
2023/08/13 00:22:47;;;;;;;2.97;2.73;;;20.50;99.90;;;;;;5087780;28;20173;-70
2023/08/13 00:25:13;;;;;;;3.50;3.30;;;20.50;99.90;;;;;;5090476;28;20414;-70
2023/08/13 00:27:38;;;;;;;4.20;3.20;;;20.40;99.90;;;;;;5087858;28;20665;-70
2023/08/13 00:30:05;;;;;;;5.00;3.53;;;20.40;99.90;;;;;;5092413;28;20175;-69
2023/08/13 00:32:31;;;;;;;3.47;3.10;;;20.40;99.90;;;;;;5092594;28;20183;-70
2023/08/13 00:34:56;;;;;;;4.07;3.50;;;20.40;99.90;;;;;;5088264;28;20412;-70
2023/08/13 00:37:22;;;;;;;3.27;2.67;;;20.40;99.90;;;;;;5092480;28;20195;-70
2023/08/13 00:39:48;;;;;;;3.60;3.30;;;20.30;99.90;;;;;;5092705;28;20170;-70
2023/08/13 00:42:13;;;;;;;3.23;2.93;;;20.30;99.90;;;;;;5092666;28;20179;-71
2023/08/13 00:44:39;;;;;;;3.73;3.43;;;20.20;99.90;;;;;;5092337;28;20263;-71
2023/08/13 00:47:05;;;;;;;2.93;2.73;;;20.10;99.90;;;;;;5092593;28;20222;-71
2023/08/13 00:49:30;;;;;;;3.80;3.30;;;20.10;99.90;;;;;;5092231;28;20177;-70
2023/08/13 00:51:56;;;;;;;3.90;3.60;;;20.10;99.90;;;;;;5087212;28;20772;-70
2023/08/13 00:54:22;;;;;;;3.10;2.80;;;20.00;99.90;;;;;;5092267;28;20178;-70
2023/08/13 00:56:50;;;;;;;4.10;3.50;;;20.00;99.90;;;;;;5092188;28;20186;-71
2023/08/13 00:59:17;;;;;;;4.47;3.50;;;19.90;99.90;;;;;;5092034;28;20645;-72
2023/08/13 01:01:43;;;;;;;3.63;3.33;;;19.90;99.90;;;;;;5092190;28;20466;-70
2023/08/13 01:04:09;;;;;;;6.60;6.00;;;19.90;99.90;;;;;;5092369;28;20411;-70
2023/08/13 01:06:42;;;;;;;5.57;5.07;;;19.90;99.90;;;;;;5092033;28;20210;-70
2023/08/13 01:09:17;;;;;;;4.77;4.37;;;19.90;99.90;;;;;;5086899;28;20172;-70
2023/08/13 01:11:58;;;;;;;3.33;3.13;;;19.90;99.90;;;;;;5086861;28;20459;-70
2023/08/13 01:14:32;;;;;;;3.50;3.23;;;19.90;99.90;;;;;;5091833;28;20422;-71
2023/08/13 01:16:59;;;;;;;3.70;3.40;;;19.90;99.90;;;;;;5091917;28;20815;-70
2023/08/13 01:19:25;;;;;;;3.90;3.60;;;19.80;99.90;;;;;;5091884;28;20775;-72
2023/08/13 01:21:51;;;;;;;4.10;3.80;;;19.80;99.90;;;;;;5091868;28;20408;-70
2023/08/13 01:24:17;;;;;;;3.73;3.47;;;19.70;99.90;;;;;;5091578;28;20229;-71
2023/08/13 01:27:01;;;;;;;3.63;3.33;;;19.70;99.90;;;;;;5086757;28;20202;-71
2023/08/13 01:29:48;;;;;;;3.83;3.60;;;19.70;99.90;;;;;;5090319;28;20173;-71
2023/08/13 01:32:18;;;;;;;4.73;4.30;;;19.70;99.90;;;;;;5091380;28;20413;-71
2023/08/13 01:34:45;;;;;;;4.27;3.87;;;19.60;99.90;;;;;;5091785;28;20411;-70
2023/08/13 01:37:11;;;;;;;4.60;4.30;;;19.60;99.90;;;;;;5091624;28;20460;-70
2023/08/13 01:39:40;;;;;;;4.60;4.20;;;19.60;99.90;;;;;;5079450;28;20422;-70
2023/08/13 01:42:06;;;;;;;4.70;4.00;;;19.70;99.90;;;;;;5084472;28;20424;-70
2023/08/13 01:44:32;;;;;;;4.67;3.67;;;19.70;99.90;;;;;;5090934;28;20767;-71
2023/08/13 01:46:57;;;;;;;5.20;4.80;;;19.70;99.90;;;;;;5091632;28;20424;-71
2023/08/13 01:49:23;;;;;;;4.90;4.50;;;19.70;99.90;;;;;;5091209;28;20282;-71
2023/08/13 01:51:49;;;;;;;3.53;3.23;;;19.70;99.90;;;;;;5091696;28;20184;-70
2023/08/13 01:54:15;;;;;;;3.50;3.20;;;19.80;99.90;;;;;;5092180;28;20205;-71
2023/08/13 01:56:40;;;;;;;4.73;4.33;;;19.80;99.90;;;;;;5091785;28;20218;-72
2023/08/13 01:59:06;;;;;;;7.63;4.50;;;19.80;99.90;;;;;;5086866;28;20456;-70
2023/08/13 02:01:32;;;;;;;3.77;3.40;;;19.80;99.90;;;;;;5090769;28;20184;-70
2023/08/13 02:03:57;;;;;;;4.50;4.10;;;19.80;99.90;;;;;;5091345;28;20650;-70
2023/08/13 02:06:23;;;;;;;3.90;3.57;;;19.80;99.90;;;;;;5090817;28;20180;-70
2023/08/13 02:08:49;;;;;;;3.93;3.63;;;19.70;99.90;;;;;;5091281;28;20222;-69
2023/08/13 02:11:14;;;;;;;3.93;3.60;;;19.70;99.90;;;;;;5090719;28;20637;-71
2023/08/13 02:13:40;;;;;;;4.10;3.80;;;19.80;99.90;;;;;;5091311;28;20181;-70
2023/08/13 02:16:06;;;;;;;4.10;3.80;;;19.80;99.90;;;;;;5086743;28;20211;-70
2023/08/13 02:18:31;;;;;;;4.10;3.70;;;19.80;99.90;;;;;;5089992;28;20271;-70
2023/08/13 02:20:57;;;;;;;4.67;4.27;;;19.70;99.90;;;;;;5091461;28;20267;-70
2023/08/13 02:23:23;;;;;;;4.20;3.80;;;19.70;99.90;;;;;;5091177;28;20658;-71
2023/08/13 02:25:49;;;;;;;4.00;3.57;;;19.80;99.90;;;;;;5091008;28;20175;-70
2023/08/13 02:28:15;;;;;;;4.37;3.60;;;19.70;99.90;;;;;;5091033;28;20214;-70
2023/08/13 02:30:40;;;;;;;4.17;3.77;;;19.70;99.90;;;;;;5081241;28;20426;-70
2023/08/13 02:33:06;;;;;;;4.20;3.90;;;19.60;99.90;;;;;;5086787;28;20638;-70
2023/08/13 02:35:32;;;;;;;4.07;3.70;;;19.60;99.90;;;;;;5090073;28;20196;-70
2023/08/13 02:37:57;;;;;;;3.77;3.30;;;19.50;99.90;;;;;;5090891;28;20187;-70
2023/08/13 02:40:23;;;;;;;4.10;3.80;;;19.50;99.90;;;;;;5090860;28;20261;-70
2023/08/13 02:42:48;;;;;;;4.07;3.47;;;19.40;99.90;;;;;;5090965;28;20178;-70
2023/08/13 02:45:14;;;;;;;3.40;3.20;;;19.30;99.90;;;;;;5092542;28;20627;-70
2023/08/13 02:47:40;;;;;;;5.00;3.67;;;19.30;99.90;;;;;;5094669;28;20200;-70
2023/08/13 02:50:06;;;;;;;4.13;3.77;;;19.20;99.90;;;;;;5090397;28;20220;-70
2023/08/13 02:52:32;;;;;;;4.63;3.73;;;19.20;99.90;;;;;;5093965;28;20177;-70
2023/08/13 02:54:57;;;;;;;3.57;3.37;;;19.10;99.90;;;;;;5081176;28;20946;-70
2023/08/13 02:57:23;;;;;;;4.23;3.80;;;19.10;99.90;;;;;;5094628;28;20209;-70
2023/08/13 02:59:49;;;;;;;4.73;4.37;;;19.00;99.90;;;;;;5087119;28;20634;-70
2023/08/13 03:02:16;;;;;;;3.80;3.50;;;19.00;99.90;;;;;;5094590;28;20178;-70
2023/08/13 03:04:42;;;;;;;6.10;3.57;;;19.00;99.90;;;;;;5089578;28;20191;-70
2023/08/13 03:07:08;;;;;;;4.80;4.30;;;18.90;99.90;;;;;;5094322;28;20466;-70
2023/08/13 03:09:34;;;;;;;4.73;4.30;;;18.90;99.90;;;;;;5094110;28;20249;-70
2023/08/13 03:11:59;;;;;;;4.27;3.97;;;18.90;99.90;;;;;;5076186;28;20226;-70
2023/08/13 03:14:25;;;;;;;4.10;3.67;;;18.80;99.90;;;;;;5094472;28;20878;-70
2023/08/13 03:16:50;;;;;;;3.80;3.50;;;18.70;99.90;;;;;;5093887;28;20566;-70
2023/08/13 03:19:16;;;;;;;4.53;4.13;;;18.70;99.90;;;;;;5094241;28;20186;-70
2023/08/13 03:21:42;;;;;;;3.90;3.57;;;18.80;99.90;;;;;;5093946;28;20191;-70
2023/08/13 03:24:07;;;;;;;4.17;3.77;;;18.70;99.90;;;;;;5089510;28;20246;-70
2023/08/13 03:26:33;;;;;;;4.77;4.37;;;18.60;99.90;;;;;;5093384;28;20196;-70
2023/08/13 03:28:58;;;;;;;5.10;4.60;;;18.70;99.90;;;;;;5093826;28;20266;-70
2023/08/13 03:31:24;;;;;;;3.63;3.33;;;18.60;99.90;;;;;;5094045;28;20179;-70
2023/08/13 03:33:50;;;;;;;4.60;4.20;;;18.60;99.90;;;;;;5093948;28;20197;-70
2023/08/13 03:36:15;;;;;;;5.13;3.73;;;18.60;99.90;;;;;;5093968;28;20199;-71
2023/08/13 03:38:41;;;;;;;4.90;4.50;;;18.60;99.90;;;;;;5093791;28;20624;-70
2023/08/13 03:41:07;;;;;;;4.63;4.23;;;18.50;99.90;;;;;;5091620;28;20176;-70
2023/08/13 03:43:32;;;;;;;5.20;4.80;;;18.60;99.90;;;;;;5093517;28;20184;-70
2023/08/13 03:45:58;;;;;;;6.30;4.17;;;18.60;99.90;;;;;;5084046;28;20165;-71
2023/08/13 03:48:23;;;;;;;4.00;3.70;;;18.60;99.90;;;;;;5093425;28;20613;-70
2023/08/13 03:50:49;;;;;;;4.47;4.07;;;18.50;99.90;;;;;;5093687;28;20184;-70
2023/08/13 03:53:15;;;;;;;4.40;4.00;;;18.50;99.90;;;;;;5093729;28;20263;-71
2023/08/13 03:55:40;;;;;;;4.63;3.83;;;18.50;99.90;;;;;;5093326;28;20191;-71
2023/08/13 03:58:07;;;;;;;5.83;4.53;;;18.50;99.90;;;;;;5088912;28;20213;-71
2023/08/13 04:00:32;;;;;;;5.00;4.47;;;18.50;99.90;;;;;;5092983;28;20184;-71
2023/08/13 04:02:58;;;;;;;4.40;4.00;;;18.50;99.90;;;;;;5093522;28;20903;-71
2023/08/13 04:05:24;;;;;;;4.37;3.50;;;18.50;99.90;;;;;;5093601;28;20162;-71
2023/08/13 04:07:49;;;;;;;4.20;3.80;;;18.50;99.90;;;;;;5093570;28;20247;-71
2023/08/13 04:10:15;;;;;;;4.33;3.93;;;18.60;99.90;;;;;;5093920;28;20252;-70
2023/08/13 04:12:40;;;;;;;4.63;4.23;;;18.50;99.90;;;;;;5088884;28;20223;-71
2023/08/13 04:15:07;;;;;;;4.00;3.70;;;18.60;99.90;;;;;;5094125;28;20177;-71
2023/08/13 04:17:32;;;;;;;4.60;4.30;;;18.60;99.90;;;;;;5095677;28;20582;-71
2023/08/13 04:19:58;;;;;;;4.80;4.40;;;18.60;99.90;;;;;;5095038;28;20407;-71
2023/08/13 04:22:24;;;;;;;4.77;4.17;;;18.70;99.90;;;;;;5096322;28;20172;-70
2023/08/13 04:24:50;;;;;;;6.50;4.00;;;18.70;99.90;;;;;;5093642;28;20186;-71
2023/08/13 04:27:17;;;;;;;4.30;3.97;;;18.80;99.90;;;;;;5093060;28;20288;-70
2023/08/13 04:29:42;;;;;;;4.20;3.90;;;18.70;99.90;;;;;;5092760;28;20828;-70
2023/08/13 04:32:08;;;;;;;4.00;3.70;;;18.80;99.90;;;;;;5092878;28;20448;-70
2023/08/13 04:34:34;;;;;;;4.83;4.10;;;18.80;99.90;;;;;;5093076;28;20177;-71
2023/08/13 04:36:59;;;;;;;3.80;3.50;;;18.90;99.90;;;;;;5092576;28;20552;-71
2023/08/13 04:39:25;;;;;;;5.33;3.47;;;19.00;99.90;;;;;;5092711;28;20173;-71
2023/08/13 04:41:52;;;;;;;3.80;3.50;;;19.00;99.90;;;;;;5092653;28;20170;-70
2023/08/13 04:44:17;;;;;;;4.03;3.20;;;19.00;99.90;;;;;;5092429;28;20212;-70
2023/08/13 04:46:43;;;;;;;4.67;3.27;;;19.10;99.90;;;;;;5092352;28;20430;-70
2023/08/13 04:49:09;;;;;;;4.83;3.20;;;19.30;99.90;;;;;;5087620;28;20170;-70
2023/08/13 04:51:34;;;;;;;3.57;3.27;;;19.30;99.90;;;;;;5092225;28;20168;-70
2023/08/13 04:54:00;;;;;;;3.17;2.83;;;19.30;99.90;;;;;;5092579;28;20660;-70
2023/08/13 04:56:25;;;;;;;3.33;3.03;;;19.30;99.90;;;;;;5092832;28;20180;-70
2023/08/13 04:58:51;;;;;;;3.30;3.00;;;19.40;99.90;;;;;;5091991;28;20204;-71
2023/08/13 05:01:17;;;;;;;3.97;2.80;;;19.40;99.90;;;;;;5092358;28;20214;-70
2023/08/13 05:03:44;;;;;;;2.77;2.57;;;19.30;99.90;;;;;;5084887;28;20169;-70
2023/08/13 05:06:11;;;;;;;2.93;2.53;;;19.30;99.90;;;;;;5090814;28;20737;-70
2023/08/13 05:08:36;;;;;;;3.40;2.97;;;19.30;99.90;;;;;;5081205;28;20438;-70
2023/08/13 05:11:02;;;;;;;5.77;2.43;;;19.40;99.90;;;;;;5091697;28;20422;-71
2023/08/13 05:13:28;;;;;;;3.50;3.20;;;19.60;99.90;;;;;;5092118;28;20816;-71
2023/08/13 05:15:53;;;;;;;3.70;2.97;;;19.80;99.90;;;;;;5091874;28;20230;-70
2023/08/13 05:18:19;;;;;;;3.63;2.60;;;20.00;99.90;;;;;;5091643;28;20695;-69
2023/08/13 05:20:46;;;;;;;3.43;2.73;;;20.10;99.90;;;;;;5091840;28;20171;-70
2023/08/13 05:23:12;;;;;;;2.63;2.30;;;20.20;99.90;;;;;;5090662;28;20160;-70
2023/08/13 05:25:38;;;;;;;2.27;2.03;;;20.30;99.90;;;;;;5083694;28;20561;-70
2023/08/13 05:28:07;;;;;;;3.30;2.33;;;20.30;99.90;;;;;;5091972;28;20290;-70
2023/08/13 05:30:36;;;;;;;3.27;2.30;;;20.80;99.90;;;;;;5091782;28;20423;-70
2023/08/13 05:33:01;;;;;;;3.33;2.27;;;20.80;99.90;;;;;;5091907;28;20964;-70
2023/08/13 05:35:27;;;;;;;2.20;1.80;;;21.00;99.90;;;;;;5092059;28;20549;-70
2023/08/13 05:37:53;;;;;;;2.37;2.17;;;21.40;99.90;;;;;;5092245;28;20203;-70
2023/08/13 05:40:18;;;;;;;3.53;1.97;;;21.40;99.90;;;;;;5090446;28;20176;-70
2023/08/13 05:42:45;;;;;;;1.73;1.53;;;21.30;99.90;;;;;;5092353;28;20667;-70
2023/08/13 05:45:11;;;;;;;2.70;1.90;;;21.30;99.90;;;;;;5091613;28;20192;-70
2023/08/13 05:47:37;;;;;;;3.50;1.93;;;21.40;99.90;;;;;;5091865;28;20425;-70
2023/08/13 05:50:03;;;;;;;2.10;1.90;;;22.10;99.90;;;;;;5081547;28;20901;-69
2023/08/13 05:52:29;;;;;;;2.80;2.03;;;22.30;99.90;;;;;;5091789;28;20173;-70
2023/08/13 05:54:55;;;;;;;2.63;2.43;;;22.60;99.90;;;;;;5084732;22;20719;-70
2023/08/13 05:57:21;;;;;;;3.80;2.90;;;22.10;99.90;;;;;;5073587;28;20459;-70
2023/08/13 05:59:47;;;;;;;2.30;1.90;;;22.20;99.90;;;;;;5089345;28;20403;-70
2023/08/13 06:02:13;;;;;;;2.57;1.90;;;22.10;99.90;;;;;;5085947;28;20454;-71
2023/08/13 06:04:38;;;;;;;2.73;1.33;;;22.20;99.90;;;;;;5074936;28;20200;-70
2023/08/13 06:07:04;;;;;;;4.70;2.00;;;22.20;99.90;;;;;;5063807;28;20197;-71
2023/08/13 06:09:30;;;;;;;2.70;2.00;;;22.30;99.90;;;;;;5069936;28;20257;-71
2023/08/13 06:11:56;;;;;;;2.80;1.83;;;22.40;99.90;;;;;;5062051;28;20639;-71
2023/08/13 06:14:21;;;;;;;5.60;2.40;;;22.60;99.90;;;;;;5069788;28;20468;-70
2023/08/13 06:16:47;;;;;;;3.33;2.23;;;23.00;99.90;;;;;;5070170;28;20174;-70
2023/08/13 06:19:13;;;;;;;4.60;1.90;;;22.90;99.90;;;;;;5071690;28;20678;-70
2023/08/13 06:21:39;;;;;;;1.80;1.70;;;23.00;99.90;;;;;;5066276;28;20882;-70
2023/08/13 06:24:05;;;;;;;3.00;1.80;;;23.00;99.90;;;;;;5074316;28;20189;-71
2023/08/13 06:26:34;;;;;;;3.50;1.77;;;23.10;99.90;;;;;;5075212;28;20177;-71
2023/08/13 06:29:00;;;;;;;5.20;2.60;;;23.20;99.90;;;;;;5073674;28;20530;-70
2023/08/13 06:31:26;;;;;;;3.17;1.80;;;23.30;99.90;;;;;;5073225;28;20893;-70
2023/08/13 06:33:51;;;;;;;6.73;1.97;;;23.30;99.90;;;;;;5073550;28;20193;-70
2023/08/13 06:36:17;;;;;;;2.73;1.83;;;23.30;99.90;;;;;;5073476;28;20420;-70
2023/08/13 06:38:43;;;;;;;3.53;2.00;;;24.20;99.90;;;;;;5073264;28;20232;-70
2023/08/13 06:41:09;;;;;;;5.03;2.00;;;24.30;99.90;;;;;;5073338;28;20241;-70
2023/08/13 06:43:35;;;;;;;3.90;1.90;;;24.30;99.90;;;;;;5073215;28;20243;-70
2023/08/13 06:46:01;;;;;;;8.10;2.10;;;24.40;99.90;;;;;;5073143;28;20224;-70
2023/08/13 06:48:30;;;;;;;4.70;1.77;;;24.40;99.90;;;;;;5067231;28;20428;-71
2023/08/13 06:50:56;;;;;;;6.10;3.33;;;24.90;99.90;;;;;;5073545;28;20493;-70
2023/08/13 06:53:23;;;;;;;4.43;1.80;;;25.10;99.90;;;;;;5073195;28;20439;-70
2023/08/13 06:55:48;;;;;;;3.83;1.90;;;25.60;99.90;;;;;;5072961;28;20404;-71
2023/08/13 06:58:14;;;;;;;4.30;1.80;;;25.50;99.90;;;;;;5072867;28;21371;-70
2023/08/13 07:00:44;;;;;;;3.30;2.00;;;25.10;99.90;;;;;;5072641;28;20579;-71
2023/08/13 07:03:10;;;;;;;5.47;1.60;;;24.70;99.90;;;;;;5073119;28;20775;-71
2023/08/13 07:05:37;;;;;;;1.97;1.80;;;24.30;99.90;;;;;;5072762;28;20416;-71
2023/08/13 07:08:04;;;;;;;6.97;2.40;;;24.50;99.90;;;;;;5073060;28;20412;-71
2023/08/13 07:10:30;;;;;;;2.60;1.70;;;24.70;99.90;;;;;;5072811;28;20407;-71
2023/08/13 07:12:56;;;;;;;3.20;2.00;;;24.80;99.90;;;;;;5072659;28;20401;-71
2023/08/13 07:15:22;;;;;;;2.27;1.83;;;25.30;99.90;;;;;;5072562;28;20291;-71
2023/08/13 07:17:48;;;;;;;5.27;1.93;;;25.50;99.90;;;;;;5072487;28;20206;-70
2023/08/13 07:20:16;;;;;;;3.00;1.70;;;25.70;99.90;;;;;;5072175;28;20415;-71
2023/08/13 07:22:43;;;;;;;2.50;1.50;;;26.20;99.90;;;;;;5072092;28;20270;-70
2023/08/13 07:25:09;;;;;;;8.67;2.47;;;26.60;99.90;;;;;;5072131;28;20435;-72
2023/08/13 07:27:35;;;;;;;2.40;2.03;;;26.20;99.90;;;;;;5072176;28;20779;-70
2023/08/13 07:30:01;;;;;;;3.60;1.70;;;26.20;99.90;;;;;;5071152;28;20419;-71
2023/08/13 07:32:28;;;;;;;3.20;1.77;;;26.90;99.90;;;;;;5071818;28;20198;-70
2023/08/13 07:34:54;;;;;;;2.80;2.07;;;27.40;99.90;;;;;;5072218;28;20502;-70
2023/08/13 07:37:21;;;;;;;3.73;2.47;;;28.10;99.90;;;;;;5072112;28;20567;-71
2023/08/13 07:39:46;;;;;;;7.40;6.70;;;27.30;99.90;;;;;;5071776;28;20541;-71
2023/08/13 07:42:12;;;;;;;3.70;2.00;;;27.50;99.90;;;;;;5072147;28;20413;-71
2023/08/13 07:44:37;;;;;;;8.03;5.50;;;27.20;99.90;;;;;;5071914;28;20507;-71
2023/08/13 07:47:04;;;;;;;6.13;2.37;;;27.10;99.90;;;;;;5069352;28;20201;-71
2023/08/13 07:49:29;;;;;;;6.20;2.00;;;27.80;99.90;;;;;;5068993;28;20162;-71
2023/08/13 07:51:55;;;;;;;6.13;4.03;;;27.70;99.90;;;;;;5071857;28;20431;-72
2023/08/13 07:54:21;;;;;;;3.00;2.57;;;27.60;99.90;;;;;;5071595;28;20198;-72
2023/08/13 07:56:47;;;;;;;4.40;1.93;;;27.70;99.90;;;;;;5071711;28;20644;-72
2023/08/13 07:59:13;;;;;;;5.40;4.27;;;27.90;99.90;;;;;;5071452;28;20539;-72
2023/08/13 08:01:39;;;;;;;3.83;2.33;;;27.60;99.90;;;;;;5071275;28;20440;-72
2023/08/13 08:04:05;;;;;;;5.97;2.80;;;27.80;99.90;;;;;;5072391;28;20278;-71
2023/08/13 08:06:30;;;;;;;6.13;5.03;;;27.80;99.90;;;;;;5071765;28;20223;-72
2023/08/13 08:08:56;;;;;;;5.63;4.40;;;27.70;99.90;;;;;;5071299;28;20220;-71
2023/08/13 08:11:21;;;;;;;4.27;2.43;;;27.30;99.90;;;;;;5071677;28;20162;-75
2023/08/13 08:13:47;;;;;;;3.03;2.27;;;27.50;99.90;;;;;;5071720;28;20197;-70
2023/08/13 08:16:13;;;;;;;5.07;2.03;;;26.90;99.90;;;;;;5072405;28;20174;-71
2023/08/13 08:18:38;;;;;;;3.87;1.70;;;26.70;99.90;;;;;;5071581;28;20280;-71
2023/08/13 08:21:04;;;;;;;4.60;2.87;;;26.40;99.90;;;;;;5075197;28;20177;-71
2023/08/13 08:23:30;;;;;;;4.87;2.17;;;26.40;99.90;;;;;;5073128;28;20546;-72
2023/08/13 08:25:56;;;;;;;7.60;4.00;;;27.00;99.90;;;;;;5072051;28;20502;-72
2023/08/13 08:28:21;;;;;;;6.23;3.50;;;26.00;99.90;;;;;;5072954;28;20417;-71
2023/08/13 08:30:47;;;;;;;6.90;5.50;;;27.10;99.90;;;;;;5075896;28;20405;-71
2023/08/13 08:33:13;;;;;;;6.60;2.33;;;27.40;99.90;;;;;;5074869;28;20198;-72
2023/08/13 08:35:38;;;;;;;7.53;2.17;;;27.60;99.90;;;;;;5065126;28;20170;-72
2023/08/13 08:38:05;;;;;;;5.40;2.27;;;27.50;99.90;;;;;;5067065;28;20189;-71
2023/08/13 08:40:31;;;;;;;5.30;2.37;;;28.00;99.90;;;;;;5082412;28;20182;-72
2023/08/13 08:42:57;;;;;;;8.30;4.47;;;27.70;99.90;;;;;;5068435;28;21131;-71
2023/08/13 08:45:23;;;;;;;6.50;4.53;;;28.50;99.90;;;;;;5071557;28;20589;-71
2023/08/13 08:47:50;;;;;;;2.40;1.40;;;28.10;99.90;;;;;;5067777;28;20166;-72
2023/08/13 08:50:17;;;;;;;4.33;1.90;;;27.50;99.90;;;;;;5081668;28;20787;-73
2023/08/13 08:52:43;;;;;;;7.37;1.93;;;27.50;99.90;;;;;;5072187;28;20411;-71
2023/08/13 08:55:11;;;;;;;3.27;1.73;;;29.20;99.90;;;;;;5067151;28;20460;-69
2023/08/13 08:57:38;;;;;;;3.90;1.90;;;28.80;99.90;;;;;;5070447;28;20452;-71
2023/08/13 09:00:05;;;;;;;2.27;2.07;;;28.30;99.90;;;;;;5070575;28;20483;-71
2023/08/13 09:02:31;;;;;;;3.37;2.40;;;27.90;99.90;;;;;;5070490;28;20860;-70
2023/08/13 09:04:57;;;;;;;7.43;2.30;;;28.30;99.90;;;;;;5070758;28;20554;-71
2023/08/13 09:07:30;;;;;;;3.30;2.30;;;28.20;99.90;;;;;;5070278;28;20612;-71
2023/08/13 09:09:57;;;;;;;2.73;1.70;;;29.30;99.90;;;;;;5069879;28;20416;-70
2023/08/13 09:12:22;;;;;;;2.10;1.90;;;28.30;99.90;;;;;;5068350;28;20443;-70
2023/08/13 09:14:51;;;;;;;4.53;2.30;;;27.90;99.90;;;;;;5070347;28;20447;-71
2023/08/13 09:17:17;;;;;;;3.70;2.27;;;29.00;99.90;;;;;;5061509;28;20174;-70
2023/08/13 09:19:43;;;;;;;4.40;2.20;;;28.50;99.90;;;;;;5070025;28;20424;-71
2023/08/13 09:22:09;;;;;;;3.93;2.00;;;28.50;99.90;;;;;;5070133;28;20166;-71
2023/08/13 09:24:41;;;;;;;2.27;1.70;;;28.60;99.90;;;;;;5070014;28;20225;-71
2023/08/13 09:27:08;;;;;;;2.57;1.80;;;28.00;99.90;;;;;;5070514;28;20439;-71
2023/08/13 09:29:36;;;;;;;4.23;2.47;;;27.90;99.90;;;;;;5068392;28;21110;-70
2023/08/13 09:32:03;;;;;;;1.77;1.50;;;27.80;99.90;;;;;;5065587;28;20426;-71
2023/08/13 09:34:30;;;;;;;3.10;2.63;;;28.60;99.90;;;;;;5070024;28;20420;-71
2023/08/13 09:36:56;;;;;;;3.13;2.13;;;28.60;99.90;;;;;;5064884;28;20443;-70
2023/08/13 09:39:23;;;;;;;3.87;2.10;;;28.30;99.90;;;;;;5069178;28;20456;-71
2023/08/13 09:41:51;;;;;;;3.83;3.50;;;27.50;99.90;;;;;;5070227;28;20491;-71
2023/08/13 09:44:20;;;;;;;3.60;2.10;;;28.10;99.90;;;;;;5069937;28;20420;-72
2023/08/13 09:46:52;;;;;;;2.00;1.70;;;28.90;99.90;;;;;;5070005;28;20484;-71
2023/08/13 09:49:18;;;;;;;2.33;2.10;;;29.60;99.90;;;;;;5069454;28;20420;-72
2023/08/13 09:51:48;;;;;;;5.20;3.50;;;29.30;99.90;;;;;;5069837;28;20918;-73
2023/08/13 09:54:37;;;;;;;3.47;1.93;;;30.30;98.30;;;;;;5068906;28;20539;-75
2023/08/13 09:57:07;;;;;;;3.93;1.90;;;29.00;99.90;;;;;;5069637;28;20405;-74
2023/08/13 09:59:34;;;;;;;3.30;2.40;;;28.70;99.90;;;;;;5055747;28;20536;-72
2023/08/13 10:02:01;;;;;;;2.60;1.90;;;28.60;99.90;;;;;;5063669;28;20486;-73
2023/08/13 10:04:28;;;;;;;2.00;1.70;;;28.30;99.40;;;;;;5069411;28;20426;-71
2023/08/13 10:06:54;;;;;;;2.93;2.10;;;27.70;99.60;;;;;;5061436;28;20432;-74
2023/08/13 10:09:21;;;;;;;5.77;1.90;;;27.70;99.60;;;;;;5069798;28;20413;-71
2023/08/13 10:11:47;;;;;;;4.47;1.90;;;27.30;99.30;;;;;;5069957;28;20415;-70
2023/08/13 10:14:13;;;;;;;3.03;1.93;;;27.00;99.70;;;;;;5069686;28;20424;-70
2023/08/13 10:16:40;;;;;;;3.00;2.00;;;27.00;99.90;;;;;;5069558;28;20224;-72
2023/08/13 10:19:08;;;;;;;4.83;1.50;;;26.90;99.90;;;;;;5064311;28;20212;-72
2023/08/13 10:21:35;;;;;;;1.80;1.70;;;27.20;99.90;;;;;;5052392;28;20440;-72
2023/08/13 10:24:08;;;;;;;5.30;2.27;;;26.90;99.90;;;;;;5046835;28;20540;-72
2023/08/13 10:26:35;;;;;;;3.90;1.80;;;26.70;99.90;;;;;;5070348;28;20415;-72
2023/08/13 10:29:17;;;;;;;3.07;2.13;;;26.60;99.90;;;;;;5069539;28;20412;-72
2023/08/13 10:32:15;;;;;;;5.37;2.47;;;26.40;99.90;;;;;;5064304;28;20424;-71
2023/08/13 10:34:53;;;;;;;3.27;2.23;;;26.60;99.90;;;;;;5069675;28;20432;-72
2023/08/13 10:37:24;;;;;;;5.70;2.10;;;26.80;99.90;;;;;;5069585;28;20508;-73
2023/08/13 10:39:55;;;;;;;2.20;2.00;;;26.50;99.90;;;;;;5069933;28;20416;-72
2023/08/13 10:42:27;;;;;;;2.50;2.00;;;26.40;99.90;;;;;;5069386;28;20404;-73
2023/08/13 10:45:04;;;;;;;4.93;2.10;;;26.60;99.90;;;;;;5069724;28;20485;-72
2023/08/13 10:47:48;;;;;;;3.63;2.20;;;26.50;99.90;;;;;;5068261;28;20404;-72
2023/08/13 10:50:34;;;;;;;3.30;1.80;;;26.40;99.90;;;;;;5070360;28;20409;-72
2023/08/13 10:53:09;;;;;;;3.10;1.80;;;26.90;99.90;;;;;;5064045;28;20799;-72
2023/08/13 10:55:46;;;;;;;7.43;2.50;;;27.30;99.90;;;;;;5066551;28;20439;-70
2023/08/13 10:58:45;;;;;;;4.73;2.20;;;26.80;99.90;;;;;;5069151;28;20444;-75
2023/08/13 11:01:20;;;;;;;2.60;1.83;;;27.00;99.90;;;;;;5037759;28;20938;-72
2023/08/13 11:03:55;;;;;;;2.70;1.70;;;27.00;99.90;;;;;;5067910;28;20420;-73
2023/08/13 11:06:22;;;;;;;3.77;1.60;;;27.30;99.90;;;;;;5071123;28;20404;-73
2023/08/13 11:08:48;;;;;;;2.73;2.00;;;27.80;99.90;;;;;;5072141;28;20423;-74
2023/08/13 11:11:19;;;;;;;3.17;1.83;;;27.40;99.90;;;;;;5072921;28;20418;-73
2023/08/13 11:13:45;;;;;;;2.43;1.93;;;26.70;99.90;;;;;;5069257;28;20432;-71
2023/08/13 11:16:11;;;;;;;3.60;1.90;;;26.50;99.90;;;;;;5072813;28;20442;-71
2023/08/13 11:18:37;;;;;;;2.80;1.80;;;27.00;99.90;;;;;;5072623;28;20448;-72
2023/08/13 11:21:04;;;;;;;2.93;1.67;;;26.80;99.90;;;;;;5072590;28;20419;-73
2023/08/13 11:23:31;;;;;;;3.60;2.73;;;27.50;99.90;;;;;;5073391;28;20432;-72
2023/08/13 11:25:57;;;;;;;2.70;2.50;;;27.20;99.90;;;;;;5072672;28;20408;-72
2023/08/13 11:28:27;;;;;;;7.73;2.83;;;27.60;99.90;;;;;;5072207;28;20758;-74
2023/08/13 11:30:54;;;;;;;2.30;1.70;;;27.20;99.90;;;;;;5072396;28;20458;-71
2023/08/13 11:33:20;;;;;;;2.93;2.20;;;27.30;99.90;;;;;;5072446;28;20439;-72
2023/08/13 11:35:47;;;;;;;5.20;2.10;;;26.50;99.90;;;;;;5071812;28;20412;-72
2023/08/13 11:38:14;;;;;;;2.77;1.77;;;26.40;99.90;;;;;;5071912;28;20460;-71
2023/08/13 11:40:40;;;;;;;3.40;1.73;;;26.80;99.90;;;;;;5072270;28;20469;-71
2023/08/13 11:43:10;;;;;;;3.70;2.27;;;26.90;99.90;;;;;;5072000;28;20423;-72
2023/08/13 11:45:36;;;;;;;3.37;2.13;;;26.60;99.90;;;;;;5072193;28;20473;-72
2023/08/13 11:48:09;;;;;;;3.67;2.83;;;26.60;99.90;;;;;;5071888;28;20515;-71
2023/08/13 11:50:36;;;;;;;2.37;1.67;;;26.50;99.90;;;;;;5071869;28;20408;-72
2023/08/13 11:53:20;;;;;;;3.37;2.00;;;26.30;99.90;;;;;;5071664;28;20428;-71
2023/08/13 11:55:47;;;;;;;2.73;1.77;;;26.80;99.90;;;;;;5069620;28;20416;-71
2023/08/13 11:58:17;;;;;;;3.17;2.03;;;27.20;99.90;;;;;;5071718;28;20480;-71
2023/08/13 12:00:44;;;;;;;2.83;2.10;;;27.00;99.90;;;;;;5064202;28;20404;-71
2023/08/13 12:03:12;;;;;;;4.30;2.27;;;27.20;99.90;;;;;;5071960;28;20800;-72
2023/08/13 12:05:39;;;;;;;4.90;2.17;;;27.00;99.90;;;;;;5071785;28;20450;-71
2023/08/13 12:08:06;;;;;;;2.73;2.10;;;27.00;99.90;;;;;;5071730;28;20440;-70
2023/08/13 12:10:33;;;;;;;4.70;2.50;;;27.40;99.90;;;;;;5071698;28;20906;-71
2023/08/13 12:13:00;;;;;;;2.63;2.20;;;27.60;99.90;;;;;;5071950;28;20412;-72
2023/08/13 12:15:26;;;;;;;2.30;2.10;;;27.10;99.90;;;;;;5072904;28;20408;-73
2023/08/13 12:17:56;;;;;;;4.10;2.33;;;27.40;99.10;;;;;;5085053;22;20714;-72
2023/08/13 12:20:23;;;;;;;2.87;2.00;;;26.90;99.40;;;;;;5085227;28;20496;-72
2023/08/13 12:22:49;;;;;;;3.27;1.90;;;27.20;99.90;;;;;;5092087;28;20399;-72
2023/08/13 12:25:15;;;;;;;2.70;1.90;;;27.10;99.90;;;;;;5093471;28;20747;-72
2023/08/13 12:27:42;;;;;;;3.10;2.20;;;27.30;99.20;;;;;;5085036;28;20411;-72
2023/08/13 12:30:09;;;;;;;3.23;2.00;;;27.60;99.20;;;;;;5090310;28;20178;-71
2023/08/13 12:32:35;;;;;;;4.07;2.30;;;27.40;99.70;;;;;;5092770;28;20420;-72
2023/08/13 12:35:00;;;;;;;1.93;1.70;;;27.60;99.30;;;;;;5081941;28;20416;-72
2023/08/13 12:37:26;;;;;;;1.53;1.43;;;27.40;98.10;;;;;;5092376;28;20196;-71
2023/08/13 12:39:52;;;;;;;2.63;2.20;;;27.60;99.20;;;;;;5092759;28;20170;-72
2023/08/13 12:42:19;;;;;;;2.40;1.90;;;27.70;99.40;;;;;;5092148;28;20177;-71
2023/08/13 12:44:45;;;;;;;3.60;2.33;;;27.80;99.50;;;;;;5091328;28;20416;-71
2023/08/13 12:47:10;;;;;;;3.20;2.10;;;27.80;98.90;;;;;;5089812;28;20916;-71